createdAt,value
2018-03-26T00:00:38.702Z,3.37
2018-03-26T00:02:42.248Z,3.20
2018-03-26T00:04:45.681Z,3.27
2018-03-26T00:06:49.224Z,3.50
2018-03-26T00:08:52.673Z,3.30
2018-03-26T00:10:56.083Z,3.40
2018-03-26T00:12:59.605Z,3.60
2018-03-26T00:15:03.018Z,3.30
2018-03-26T00:17:06.511Z,3.00
2018-03-26T00:19:10.015Z,3.60
2018-03-26T00:21:13.493Z,3.20
2018-03-26T00:23:16.646Z,3.13
2018-03-26T00:25:20.317Z,3.40
2018-03-26T00:27:23.752Z,3.33
2018-03-26T00:29:27.367Z,3.57
2018-03-26T00:31:30.807Z,3.23
2018-03-26T00:33:34.304Z,3.03
2018-03-26T00:35:38.053Z,3.30
2018-03-26T00:37:41.535Z,3.10
2018-03-26T00:39:44.980Z,3.67
2018-03-26T00:41:48.403Z,3.33
2018-03-26T00:43:51.841Z,3.30
2018-03-26T00:45:55.287Z,3.20
2018-03-26T00:47:58.751Z,3.83
2018-03-26T00:50:02.377Z,3.40
2018-03-26T00:52:06.085Z,3.57
2018-03-26T00:54:09.688Z,3.20
2018-03-26T00:56:13.105Z,3.40
2018-03-26T00:58:16.639Z,3.53
2018-03-26T01:00:20.076Z,3.33
2018-03-26T01:02:23.456Z,3.50
2018-03-26T01:04:27.230Z,3.03
2018-03-26T01:06:30.714Z,2.93
2018-03-26T01:08:34.218Z,3.30
2018-03-26T01:10:37.654Z,2.97
2018-03-26T01:12:41.035Z,3.50
2018-03-26T01:14:44.572Z,3.87
2018-03-26T01:16:48.082Z,3.30
2018-03-26T01:18:51.892Z,3.47
2018-03-26T01:20:55.399Z,3.37
2018-03-26T01:22:58.828Z,3.30
2018-03-26T01:25:02.394Z,3.63
2018-03-26T01:27:05.763Z,3.40
2018-03-26T01:29:09.157Z,3.57
2018-03-26T01:31:12.624Z,3.80
2018-03-26T01:33:16.116Z,3.50
2018-03-26T01:35:19.622Z,3.27
2018-03-26T01:37:23.037Z,3.50
2018-03-26T01:39:26.651Z,3.40
2018-03-26T01:41:30.031Z,3.33
2018-03-26T01:43:33.460Z,3.83
2018-03-26T01:45:36.841Z,3.47
2018-03-26T01:47:40.230Z,3.23
2018-03-26T01:49:43.764Z,3.33
2018-03-26T01:51:47.159Z,3.30
2018-03-26T01:53:50.775Z,3.10
2018-03-26T01:55:54.670Z,3.40
2018-03-26T01:57:58.144Z,3.10
2018-03-26T02:00:01.557Z,3.50
2018-03-26T02:02:04.560Z,3.70
2018-03-26T02:04:08.067Z,3.40
2018-03-26T02:06:11.510Z,2.90
2018-03-26T02:08:14.985Z,3.47
2018-03-26T02:10:18.441Z,3.20
2018-03-26T02:12:21.876Z,3.40
2018-03-26T02:14:25.109Z,3.63
2018-03-26T02:16:28.626Z,3.53
2018-03-26T02:18:32.063Z,3.10
2018-03-26T02:20:35.661Z,3.50
2018-03-26T02:22:39.124Z,3.30
2018-03-26T02:24:42.621Z,3.50
2018-03-26T02:26:46.138Z,3.20
2018-03-26T02:28:49.635Z,3.20
2018-03-26T02:30:53.138Z,3.53
2018-03-26T02:32:56.548Z,3.43
2018-03-26T02:34:59.947Z,3.27
2018-03-26T02:37:03.444Z,3.10
2018-03-26T02:39:06.855Z,3.30
2018-03-26T02:41:10.352Z,3.37
2018-03-26T02:43:13.893Z,3.73
2018-03-26T02:45:17.281Z,3.27
2018-03-26T02:47:20.723Z,3.10
2018-03-26T02:49:24.148Z,3.63
2018-03-26T02:51:27.631Z,3.40
2018-03-26T02:53:31.522Z,3.37
2018-03-26T02:55:34.924Z,3.30
2018-03-26T02:57:38.320Z,3.00
2018-03-26T02:59:41.792Z,3.27
2018-03-26T03:01:45.328Z,3.67
2018-03-26T03:03:48.841Z,3.63
2018-03-26T03:05:52.196Z,3.30
2018-03-26T03:07:55.631Z,3.30
2018-03-26T03:09:59.156Z,3.40
2018-03-26T03:12:02.878Z,3.60
2018-03-26T03:14:06.321Z,3.20
2018-03-26T03:16:09.712Z,3.53
2018-03-26T03:18:13.114Z,3.67
2018-03-26T03:20:16.569Z,3.37
2018-03-26T03:22:20.093Z,2.90
2018-03-26T03:24:23.741Z,3.70
2018-03-26T03:26:27.210Z,3.43
2018-03-26T03:28:30.718Z,3.70
2018-03-26T03:30:34.132Z,3.00
2018-03-26T03:32:37.728Z,3.70
2018-03-26T03:34:41.139Z,3.30
2018-03-26T03:36:44.519Z,3.23
2018-03-26T03:38:48.049Z,3.30
2018-03-26T03:40:51.479Z,3.33
2018-03-26T03:42:55.057Z,3.50
2018-03-26T03:44:58.586Z,3.60
2018-03-26T03:47:02.058Z,3.27
2018-03-26T03:49:05.384Z,3.30
2018-03-26T03:51:08.804Z,3.13
2018-03-26T03:53:12.204Z,3.50
2018-03-26T03:55:15.617Z,3.23
2018-03-26T03:57:18.962Z,3.60
2018-03-26T03:59:22.350Z,3.70
2018-03-26T04:01:25.886Z,3.53
2018-03-26T04:03:29.267Z,3.70
2018-03-26T04:05:32.666Z,3.37
2018-03-26T04:07:36.084Z,3.57
2018-03-26T04:09:39.524Z,3.60
2018-03-26T04:11:43.029Z,3.27
2018-03-26T04:13:46.733Z,3.23
2018-03-26T04:15:50.558Z,3.30
2018-03-26T04:17:54.016Z,3.93
2018-03-26T04:19:57.653Z,3.00
2018-03-26T04:22:01.174Z,3.10
2018-03-26T04:24:04.608Z,3.63
2018-03-26T04:26:07.997Z,3.73
2018-03-26T04:28:11.457Z,3.83
2018-03-26T04:30:14.846Z,3.50
2018-03-26T04:32:18.249Z,2.97
2018-03-26T04:34:21.680Z,3.43
2018-03-26T04:36:25.181Z,3.50
2018-03-26T04:38:28.704Z,3.43
2018-03-26T04:40:32.221Z,3.40
2018-03-26T04:42:35.698Z,3.53
2018-03-26T04:44:39.070Z,3.40
2018-03-26T04:46:42.490Z,3.40
2018-03-26T04:48:45.935Z,3.57
2018-03-26T04:50:49.537Z,3.20
2018-03-26T04:52:54.383Z,2.80
2018-03-26T04:54:57.970Z,3.50
2018-03-26T04:57:01.385Z,3.53
2018-03-26T04:59:04.796Z,3.23
2018-03-26T05:01:08.232Z,3.50
2018-03-26T05:03:11.642Z,3.47
2018-03-26T05:05:15.071Z,3.67
2018-03-26T05:07:18.490Z,3.60
2018-03-26T05:09:22.012Z,3.43
2018-03-26T05:11:25.323Z,3.17
2018-03-26T05:13:28.761Z,3.40
2018-03-26T05:15:32.322Z,3.60
2018-03-26T05:17:35.803Z,3.87
2018-03-26T05:19:39.197Z,3.70
2018-03-26T05:21:42.649Z,3.43
2018-03-26T05:23:46.254Z,3.67
2018-03-26T05:25:49.685Z,3.63
2018-03-26T05:27:53.142Z,3.33
2018-03-26T05:29:56.556Z,3.70
2018-03-26T05:32:00.019Z,3.33
2018-03-26T05:34:03.411Z,3.70
2018-03-26T05:36:06.873Z,3.10
2018-03-26T05:38:10.354Z,3.33
2018-03-26T05:40:13.776Z,3.33
2018-03-26T05:42:17.245Z,3.37
2018-03-26T05:44:20.640Z,3.30
2018-03-26T05:46:24.096Z,3.13
2018-03-26T05:48:27.579Z,3.50
2018-03-26T05:50:30.961Z,3.70
2018-03-26T05:52:36.873Z,3.57
2018-03-26T05:54:40.348Z,3.60
2018-03-26T05:56:43.728Z,3.50
2018-03-26T05:58:47.257Z,3.40
2018-03-26T06:00:50.883Z,3.40
2018-03-26T06:02:54.401Z,3.63
2018-03-26T06:04:58.271Z,3.67
2018-03-26T06:07:01.810Z,3.57
2018-03-26T06:09:04.886Z,4.07
2018-03-26T06:11:08.290Z,3.00
2018-03-26T06:13:11.823Z,3.40
2018-03-26T06:15:15.193Z,3.47
2018-03-26T06:17:18.466Z,3.60
2018-03-26T06:19:21.812Z,3.60
2018-03-26T06:21:25.095Z,3.50
2018-03-26T06:23:28.628Z,3.50
2018-03-26T06:25:31.871Z,3.43
2018-03-26T06:27:35.085Z,3.10
2018-03-26T06:29:38.386Z,3.40
2018-03-26T06:31:41.646Z,3.03
2018-03-26T06:33:44.947Z,3.23
2018-03-26T06:35:48.290Z,3.00
2018-03-26T06:40:29.298Z,3.20
2018-03-26T06:42:32.742Z,3.43
2018-03-26T06:44:36.261Z,3.67
2018-03-26T06:46:39.739Z,3.40
2018-03-26T06:48:43.144Z,3.40
2018-03-26T06:50:46.625Z,3.53
2018-03-26T06:52:50.086Z,3.00
2018-03-26T06:54:53.702Z,3.20
2018-03-26T06:56:57.197Z,2.90
2018-03-26T06:59:00.720Z,3.07
2018-03-26T07:01:04.284Z,3.30
2018-03-26T07:03:07.811Z,3.10
2018-03-26T07:05:11.415Z,3.27
2018-03-26T07:07:14.922Z,3.30
2018-03-26T07:09:18.336Z,3.00
2018-03-26T07:11:21.770Z,3.40
2018-03-26T07:13:25.201Z,3.10
2018-03-26T07:15:28.674Z,3.00
2018-03-26T07:17:32.248Z,3.10
2018-03-26T07:19:35.641Z,3.00
2018-03-26T07:21:39.281Z,3.40
2018-03-26T07:23:42.908Z,3.10
2018-03-26T07:25:46.370Z,3.10
2018-03-26T07:27:49.749Z,3.10
2018-03-26T07:29:53.231Z,3.10
2018-03-26T07:31:56.622Z,3.50
2018-03-26T07:34:00.241Z,2.90
2018-03-26T07:36:03.689Z,3.37
2018-03-26T07:38:07.214Z,3.20
2018-03-26T07:40:10.698Z,2.97
2018-03-26T07:42:14.213Z,3.40
2018-03-26T07:44:17.714Z,3.00
2018-03-26T07:46:21.093Z,3.37
2018-03-26T07:48:24.502Z,3.07
2018-03-26T07:50:28.022Z,3.00
2018-03-26T07:52:31.528Z,3.20
2018-03-26T07:54:35.067Z,3.30
2018-03-26T07:56:38.652Z,3.30
2018-03-26T07:58:42.076Z,3.67
2018-03-26T08:00:45.457Z,3.10
2018-03-26T08:02:48.888Z,3.30
2018-03-26T08:04:52.302Z,3.30
2018-03-26T08:06:55.682Z,3.30
2018-03-26T08:08:59.039Z,3.33
2018-03-26T08:11:02.219Z,3.63
2018-03-26T08:13:05.619Z,3.37
2018-03-26T08:15:09.010Z,3.47
2018-03-26T08:17:12.573Z,3.23
2018-03-26T08:19:16.050Z,3.17
2018-03-26T08:21:19.437Z,3.27
2018-03-26T08:23:22.840Z,3.30
2018-03-26T08:25:26.050Z,3.40
2018-03-26T08:27:29.435Z,3.30
2018-03-26T08:29:32.836Z,5.23
2018-03-26T08:31:36.328Z,6.07
2018-03-26T08:33:40.725Z,5.87
2018-03-26T08:35:44.560Z,5.13
2018-03-26T08:37:48.252Z,5.77
2018-03-26T08:39:51.724Z,5.73
2018-03-26T08:41:55.269Z,5.30
2018-03-26T08:43:58.872Z,5.20
2018-03-26T08:46:03.131Z,5.00
2018-03-26T08:48:06.541Z,5.03
2018-03-26T08:50:10.184Z,4.90
2018-03-26T08:52:13.712Z,4.80
2018-03-26T08:54:17.191Z,4.50
2018-03-26T08:56:20.853Z,5.80
2018-03-26T08:58:24.622Z,6.03
2018-03-26T09:00:28.229Z,5.30
2018-03-26T09:02:32.082Z,5.80
2018-03-26T09:04:35.647Z,5.00
2018-03-26T09:06:39.064Z,5.40
2018-03-26T09:08:43.130Z,5.60
2018-03-26T09:10:46.925Z,5.60
2018-03-26T09:12:50.703Z,5.20
2018-03-26T09:14:54.478Z,4.50
2018-03-26T09:16:58.154Z,4.80
2018-03-26T09:19:01.552Z,4.67
2018-03-26T09:21:05.171Z,4.60
2018-03-26T09:23:08.688Z,4.73
2018-03-26T09:25:12.443Z,4.57
2018-03-26T09:27:15.963Z,4.77
2018-03-26T09:29:19.415Z,4.17
2018-03-26T09:31:22.859Z,4.50
2018-03-26T09:33:26.310Z,4.70
2018-03-26T09:35:29.841Z,4.63
2018-03-26T09:37:33.736Z,4.60
2018-03-26T09:39:37.190Z,4.27
2018-03-26T09:41:40.862Z,4.93
2018-03-26T09:43:44.477Z,4.07
2018-03-26T09:45:48.054Z,4.23
2018-03-26T09:47:51.676Z,4.17
2018-03-26T09:49:54.890Z,3.90
2018-03-26T09:51:58.377Z,4.43
2018-03-26T09:54:01.856Z,4.50
2018-03-26T09:56:05.491Z,3.83
2018-03-26T09:58:09.528Z,3.93
2018-03-26T10:00:12.909Z,4.53
2018-03-26T10:02:16.629Z,4.43
2018-03-26T10:04:20.293Z,4.33
2018-03-26T10:06:23.821Z,4.47
2018-03-26T10:08:27.450Z,4.07
2018-03-26T10:10:30.918Z,4.00
2018-03-26T10:12:34.481Z,4.10
2018-03-26T10:14:37.957Z,4.13
2018-03-26T10:16:41.505Z,4.00
2018-03-26T10:18:45.104Z,4.00
2018-03-26T10:20:48.527Z,4.03
2018-03-26T10:22:51.991Z,4.00
2018-03-26T10:24:55.457Z,3.73
2018-03-26T10:26:59.239Z,3.93
2018-03-26T10:29:02.820Z,3.70
2018-03-26T10:31:06.356Z,4.13
2018-03-26T10:33:10.033Z,3.90
2018-03-26T10:35:13.518Z,4.20
2018-03-26T10:37:17.075Z,4.17
2018-03-26T10:39:20.780Z,4.23
2018-03-26T10:41:24.383Z,3.60
2018-03-26T10:43:27.869Z,4.30
2018-03-26T10:45:31.481Z,4.23
2018-03-26T10:47:35.371Z,4.10
2018-03-26T10:49:39.005Z,3.60
2018-03-26T10:51:42.530Z,4.27
2018-03-26T10:53:46.154Z,4.17
2018-03-26T10:55:49.748Z,3.90
2018-03-26T10:57:53.368Z,4.07
2018-03-26T10:59:56.867Z,4.23
2018-03-26T11:02:00.364Z,4.27
2018-03-26T11:04:03.830Z,3.90
2018-03-26T11:06:07.202Z,3.87
2018-03-26T11:08:10.761Z,4.00
2018-03-26T11:10:14.503Z,4.03
2018-03-26T11:12:18.090Z,4.03
2018-03-26T11:14:21.349Z,4.37
2018-03-26T11:16:25.128Z,3.67
2018-03-26T11:18:28.526Z,4.17
2018-03-26T11:20:32.275Z,4.03
2018-03-26T11:22:35.723Z,3.83
2018-03-26T11:24:39.431Z,3.67
2018-03-26T11:26:43.057Z,4.23
2018-03-26T11:28:46.660Z,4.47
2018-03-26T11:30:50.489Z,3.97
2018-03-26T11:32:54.221Z,3.83
2018-03-26T11:34:57.968Z,4.10
2018-03-26T11:37:01.718Z,3.77
2018-03-26T11:39:04.772Z,3.87
2018-03-26T11:41:08.310Z,4.30
2018-03-26T11:43:11.963Z,4.40
2018-03-26T11:45:15.433Z,3.87
2018-03-26T11:47:19.053Z,4.17
2018-03-26T11:49:22.760Z,4.20
2018-03-26T11:51:26.356Z,4.30
2018-03-26T11:53:29.868Z,3.73
2018-03-26T11:55:33.315Z,3.90
2018-03-26T11:57:36.706Z,4.33
2018-03-26T11:59:40.295Z,3.83
2018-03-26T12:01:43.996Z,3.93
2018-03-26T12:03:47.454Z,3.80
2018-03-26T12:05:51.124Z,3.47
2018-03-26T12:07:54.905Z,3.47
2018-03-26T12:09:58.322Z,3.80
2018-03-26T12:12:02.101Z,3.70
2018-03-26T12:14:05.953Z,3.70
2018-03-26T12:16:09.680Z,4.07
2018-03-26T12:18:13.488Z,4.03
2018-03-26T12:20:28.262Z,3.53
2018-03-26T12:22:31.787Z,3.30
2018-03-26T12:24:46.645Z,3.60
2018-03-26T12:26:50.333Z,3.77
2018-03-26T12:29:05.745Z,3.90
2018-03-26T12:31:09.183Z,3.70
2018-03-26T12:33:12.753Z,3.67
2018-03-26T12:35:27.622Z,3.60
2018-03-26T12:37:31.247Z,3.87
2018-03-26T12:39:35.040Z,3.80
2018-03-26T12:41:38.741Z,3.60
2018-03-26T12:43:42.161Z,3.40
2018-03-26T12:45:57.303Z,3.43
2018-03-26T12:48:00.844Z,3.53
2018-03-26T12:50:04.340Z,3.93
2018-03-26T12:52:19.259Z,3.80
2018-03-26T12:54:22.709Z,3.50
2018-03-26T12:56:26.226Z,3.10
2018-03-26T12:58:39.347Z,3.60
2018-03-26T13:00:42.866Z,3.60
2018-03-26T13:02:46.585Z,3.87
2018-03-26T13:04:50.193Z,3.80
2018-03-26T13:06:53.805Z,3.63
2018-03-26T13:08:57.215Z,3.43
2018-03-26T13:11:00.699Z,3.27
2018-03-26T13:13:04.154Z,3.40
2018-03-26T13:15:07.578Z,3.57
2018-03-26T13:17:11.078Z,3.17
2018-03-26T13:19:14.661Z,3.50
2018-03-26T13:21:18.136Z,3.40
2018-03-26T13:23:21.554Z,3.43
2018-03-26T13:25:25.052Z,3.30
2018-03-26T13:27:28.454Z,3.57
2018-03-26T13:29:31.863Z,3.43
2018-03-26T13:31:35.273Z,4.03
2018-03-26T13:33:38.744Z,3.20
2018-03-26T13:35:42.151Z,3.37
2018-03-26T13:37:45.300Z,3.50
2018-03-26T13:39:48.688Z,3.30
2018-03-26T13:41:52.127Z,3.33
2018-03-26T13:43:55.764Z,3.40
2018-03-26T13:45:59.391Z,3.30
2018-03-26T13:48:02.900Z,3.67
2018-03-26T13:50:06.387Z,3.60
2018-03-26T13:52:09.711Z,3.50
2018-03-26T13:54:13.087Z,3.57
2018-03-26T13:56:16.481Z,3.30
2018-03-26T13:58:19.972Z,3.63
2018-03-26T14:00:23.740Z,3.37
2018-03-26T14:02:27.115Z,3.50
2018-03-26T14:04:30.738Z,3.43
2018-03-26T14:06:34.169Z,3.80
2018-03-26T14:08:49.184Z,3.57
2018-03-26T14:11:03.904Z,3.40
2018-03-26T14:13:18.974Z,3.50
2018-03-26T14:15:33.747Z,3.37
2018-03-26T14:17:48.513Z,3.73
2018-03-26T14:19:52.097Z,3.73
2018-03-26T14:21:55.627Z,3.60
2018-03-26T14:23:59.203Z,3.67
2018-03-26T14:26:02.741Z,2.97
2018-03-26T14:28:06.142Z,3.60
2018-03-26T14:30:09.635Z,3.53
2018-03-26T14:32:13.249Z,3.37
2018-03-26T14:34:16.767Z,3.80
2018-03-26T14:36:20.250Z,3.80
2018-03-26T14:38:23.668Z,3.20
2018-03-26T14:40:27.140Z,3.10
2018-03-26T14:42:30.498Z,3.60
2018-03-26T14:44:33.869Z,3.37
2018-03-26T14:46:37.390Z,3.70
2018-03-26T14:48:40.942Z,3.03
2018-03-26T14:50:44.510Z,3.20
2018-03-26T14:52:48.011Z,3.70
2018-03-26T14:54:51.457Z,3.90
2018-03-26T14:56:54.951Z,3.70
2018-03-26T14:58:58.418Z,3.53
2018-03-26T15:01:01.842Z,3.57
2018-03-26T15:03:05.375Z,3.50
2018-03-26T15:05:08.850Z,3.67
2018-03-26T15:07:12.329Z,4.10
2018-03-26T15:09:15.876Z,3.67
2018-03-26T15:11:19.363Z,3.63
2018-03-26T15:13:22.818Z,3.63
2018-03-26T15:15:26.274Z,3.87
2018-03-26T15:17:29.776Z,3.40
2018-03-26T15:19:33.314Z,3.50
2018-03-26T15:21:36.780Z,3.80
2018-03-26T15:23:40.403Z,3.80
2018-03-26T15:25:43.904Z,3.30
2018-03-26T15:27:47.390Z,3.90
2018-03-26T15:29:50.914Z,3.97
2018-03-26T15:31:54.825Z,4.00
2018-03-26T15:33:58.386Z,3.60
2018-03-26T15:36:01.941Z,3.73
2018-03-26T15:38:05.379Z,3.27
2018-03-26T15:40:09.156Z,3.73
2018-03-26T15:42:12.613Z,3.63
2018-03-26T15:44:16.476Z,4.20
2018-03-26T15:46:19.985Z,3.90
2018-03-26T15:48:23.519Z,3.77
2018-03-26T15:50:27.084Z,3.53
2018-03-26T15:52:30.708Z,3.90
2018-03-26T15:54:34.285Z,4.07
2018-03-26T15:56:37.706Z,3.93
2018-03-26T15:58:41.088Z,3.80
2018-03-26T16:00:44.657Z,4.10
2018-03-26T16:02:53.778Z,4.30
2018-03-26T16:04:57.294Z,4.30
2018-03-26T16:07:00.871Z,3.80
2018-03-26T16:09:03.973Z,4.00
2018-03-26T16:11:07.590Z,4.00
2018-03-26T16:13:11.262Z,3.57
2018-03-26T16:15:15.004Z,3.73
2018-03-26T16:17:18.594Z,4.00
2018-03-26T16:19:22.163Z,3.93
2018-03-26T16:21:25.832Z,4.40
2018-03-26T16:23:29.652Z,3.90
2018-03-26T16:25:33.252Z,4.07
2018-03-26T16:27:37.015Z,3.87
2018-03-26T16:29:41.083Z,3.60
2018-03-26T16:31:44.788Z,4.17
2018-03-26T16:33:48.503Z,4.50
2018-03-26T16:35:52.003Z,3.60
2018-03-26T16:37:55.598Z,4.13
2018-03-26T16:39:59.277Z,4.00
2018-03-26T16:42:14.060Z,4.10
2018-03-26T16:44:17.608Z,4.17
2018-03-26T16:46:21.073Z,4.07
2018-03-26T16:48:25.209Z,4.00
2018-03-26T16:50:28.928Z,3.70
2018-03-26T16:52:32.425Z,4.33
2018-03-26T16:54:35.932Z,3.87
2018-03-26T16:56:39.724Z,4.30
2018-03-26T16:58:43.263Z,4.03
2018-03-26T17:00:46.709Z,4.30
2018-03-26T17:02:50.270Z,4.30
2018-03-26T17:04:53.790Z,3.83
2018-03-26T17:06:57.597Z,4.00
2018-03-26T17:09:01.203Z,3.80
2018-03-26T17:11:04.924Z,4.07
2018-03-26T17:13:08.937Z,3.90
2018-03-26T17:15:12.679Z,4.43
2018-03-26T17:17:16.468Z,4.50
2018-03-26T17:19:21.207Z,4.00
2018-03-26T17:21:25.190Z,4.20
2018-03-26T17:23:28.966Z,4.30
2018-03-26T17:25:32.527Z,4.53
2018-03-26T17:27:36.032Z,4.40
2018-03-26T17:29:40.962Z,4.07
2018-03-26T17:31:44.892Z,4.20
2018-03-26T17:33:48.595Z,4.00
2018-03-26T17:35:52.520Z,3.87
2018-03-26T17:37:56.641Z,3.90
2018-03-26T17:40:00.327Z,4.17
2018-03-26T17:42:03.878Z,3.43
2018-03-26T17:44:07.418Z,4.13
2018-03-26T17:46:11.173Z,4.03
2018-03-26T17:48:14.750Z,3.90
2018-03-26T17:50:18.364Z,4.40
2018-03-26T17:52:21.791Z,4.40
2018-03-26T17:54:25.348Z,4.50
2018-03-26T17:56:28.927Z,4.10
2018-03-26T17:58:32.484Z,4.53
2018-03-26T18:00:36.024Z,4.33
2018-03-26T18:02:39.489Z,4.07
2018-03-26T18:04:43.188Z,4.00
2018-03-26T18:06:46.809Z,3.90
2018-03-26T18:08:50.862Z,4.10
2018-03-26T18:10:54.481Z,4.33
2018-03-26T18:12:58.201Z,4.03
2018-03-26T18:15:01.788Z,4.10
2018-03-26T18:17:05.372Z,3.80
2018-03-26T18:19:09.296Z,3.50
2018-03-26T18:21:12.901Z,4.47
2018-03-26T18:23:16.427Z,3.70
2018-03-26T18:25:20.143Z,3.90
2018-03-26T18:27:23.773Z,4.00
2018-03-26T18:29:27.234Z,3.63
2018-03-26T18:31:30.839Z,4.07
2018-03-26T18:33:34.340Z,3.83
2018-03-26T18:35:37.976Z,3.90
2018-03-26T18:37:41.580Z,3.80
2018-03-26T18:39:45.073Z,4.40
2018-03-26T18:41:48.800Z,3.73
2018-03-26T18:43:52.485Z,4.10
2018-03-26T18:45:56.130Z,4.33
2018-03-26T18:48:00.240Z,4.00
2018-03-26T18:50:03.953Z,4.30
2018-03-26T18:52:07.667Z,3.90
2018-03-26T18:54:19.539Z,4.30
2018-03-26T18:56:23.271Z,4.20
2018-03-26T18:58:26.984Z,4.43
2018-03-26T19:00:30.743Z,3.90
2018-03-26T19:02:35.955Z,4.00
2018-03-26T19:04:39.603Z,3.50
2018-03-26T19:06:44.082Z,3.50
2018-03-26T19:08:49.227Z,4.13
2018-03-26T19:10:53.042Z,4.40
2018-03-26T19:12:56.838Z,4.00
2018-03-26T19:15:01.269Z,3.87
2018-03-26T19:17:04.994Z,4.20
2018-03-26T19:19:08.791Z,4.13
2018-03-26T19:21:12.525Z,4.33
2018-03-26T19:23:16.092Z,4.10
2018-03-26T19:25:20.064Z,3.77
2018-03-26T19:27:23.890Z,3.60
2018-03-26T19:29:27.561Z,4.07
2018-03-26T19:31:31.169Z,3.63
2018-03-26T19:33:34.675Z,4.30
2018-03-26T19:35:38.261Z,4.07
2018-03-26T19:37:41.753Z,4.03
2018-03-26T19:39:45.431Z,4.07
2018-03-26T19:41:49.222Z,3.80
2018-03-26T19:43:52.821Z,3.50
2018-03-26T19:45:56.530Z,4.00
2018-03-26T19:48:00.164Z,3.90
2018-03-26T19:50:03.745Z,3.70
2018-03-26T19:52:07.354Z,3.97
2018-03-26T19:54:11.177Z,4.00
2018-03-26T19:56:14.991Z,3.63
2018-03-26T19:58:18.757Z,3.77
2018-03-26T20:00:22.570Z,3.97
2018-03-26T20:02:26.424Z,4.27
2018-03-26T20:04:30.092Z,4.33
2018-03-26T20:06:33.630Z,3.80
2018-03-26T20:08:37.246Z,4.00
2018-03-26T20:10:40.855Z,4.13
2018-03-26T20:12:44.585Z,3.60
2018-03-26T20:14:48.305Z,3.70
2018-03-26T20:16:52.013Z,3.60
2018-03-26T20:18:56.000Z,4.17
2018-03-26T20:21:04.589Z,4.37
2018-03-26T20:23:11.267Z,4.00
2018-03-26T20:25:17.877Z,4.30
2018-03-26T20:27:23.272Z,4.10
2018-03-26T20:29:28.959Z,3.77
2018-03-26T20:31:35.202Z,4.07
2018-03-26T20:33:40.755Z,4.47
2018-03-26T20:35:50.184Z,3.80
2018-03-26T20:37:56.871Z,4.00
2018-03-26T20:40:03.091Z,4.10
2018-03-26T20:42:11.039Z,4.07
2018-03-26T20:44:15.720Z,4.07
2018-03-26T20:46:22.216Z,3.63
2018-03-26T20:48:27.639Z,3.97
2018-03-26T20:50:33.565Z,3.97
2018-03-26T20:52:39.543Z,3.97
2018-03-26T20:54:44.561Z,3.77
2018-03-26T20:56:48.827Z,4.37
2018-03-26T20:58:54.520Z,4.07
2018-03-26T21:00:59.999Z,3.80
2018-03-26T21:03:06.324Z,4.10
2018-03-26T21:05:11.040Z,3.80
2018-03-26T21:07:17.115Z,3.60
2018-03-26T21:09:23.666Z,4.00
2018-03-26T21:11:28.997Z,4.30
2018-03-26T21:13:35.840Z,3.77
2018-03-26T21:15:40.554Z,3.87
2018-03-26T21:17:44.748Z,4.10
2018-03-26T21:19:50.074Z,3.60
2018-03-26T21:21:55.115Z,4.20
2018-03-26T21:23:59.744Z,4.00
2018-03-26T21:26:04.200Z,4.30
2018-03-26T21:28:09.789Z,3.83
2018-03-26T21:30:15.120Z,3.80
2018-03-26T21:32:20.351Z,4.10
2018-03-26T21:34:26.136Z,4.23
2018-03-26T21:36:31.207Z,4.13
2018-03-26T21:38:36.622Z,3.70
2018-03-26T21:40:40.871Z,4.03
2018-03-26T21:42:45.106Z,4.33
2018-03-26T21:44:51.436Z,4.43
2018-03-26T21:46:56.448Z,4.60
2018-03-26T21:48:59.850Z,3.93
2018-03-26T21:51:04.229Z,4.33
2018-03-26T21:53:08.402Z,3.97
2018-03-26T21:55:12.069Z,4.30
2018-03-26T21:57:16.225Z,3.80
2018-03-26T21:59:20.254Z,3.73
2018-03-26T22:01:25.443Z,3.70
2018-03-26T22:03:29.173Z,4.17
2018-03-26T22:05:32.996Z,3.40
2018-03-26T22:07:36.804Z,3.73
2018-03-26T22:09:40.517Z,3.70
2018-03-26T22:11:45.593Z,3.80
2018-03-26T22:13:49.402Z,4.00
2018-03-26T22:15:53.134Z,4.20
2018-03-26T22:17:57.388Z,3.60
2018-03-26T22:20:01.650Z,3.80
2018-03-26T22:22:06.260Z,3.70
2018-03-26T22:24:09.991Z,3.83
2018-03-26T22:26:14.036Z,3.70
2018-03-26T22:28:18.267Z,3.57
2018-03-26T22:30:21.947Z,3.47
2018-03-26T22:32:26.075Z,3.87
2018-03-26T22:34:29.938Z,4.00
2018-03-26T22:36:34.838Z,3.80
2018-03-26T22:38:38.388Z,3.77
2018-03-26T22:40:42.292Z,3.30
2018-03-26T22:42:46.607Z,3.50
2018-03-26T22:44:50.501Z,3.90
2018-03-26T22:46:55.805Z,3.27
2018-03-26T22:48:59.540Z,3.70
2018-03-26T22:51:03.549Z,3.77
2018-03-26T22:53:07.378Z,3.80
2018-03-26T22:55:11.185Z,3.87
2018-03-26T22:57:15.011Z,3.87
2018-03-26T22:59:18.947Z,4.07
2018-03-26T23:01:22.644Z,3.60
2018-03-26T23:03:26.345Z,3.63
2018-03-26T23:05:30.212Z,3.70
2018-03-26T23:07:34.068Z,3.80
2018-03-26T23:09:37.604Z,3.40
2018-03-26T23:11:41.383Z,3.40
2018-03-26T23:13:44.974Z,3.73
2018-03-26T23:15:48.471Z,3.70
2018-03-26T23:17:52.008Z,4.07
2018-03-26T23:19:55.591Z,3.93
2018-03-26T23:21:59.183Z,3.60
2018-03-26T23:24:03.493Z,3.70
2018-03-26T23:26:06.970Z,3.57
2018-03-26T23:28:10.832Z,3.50
2018-03-26T23:30:14.372Z,3.50
2018-03-26T23:32:17.836Z,3.83
2018-03-26T23:34:22.183Z,4.03
2018-03-26T23:36:25.689Z,3.70
2018-03-26T23:38:29.222Z,3.50
2018-03-26T23:40:32.807Z,3.87
2018-03-26T23:42:36.430Z,3.73
2018-03-26T23:44:40.144Z,3.67
2018-03-26T23:46:43.751Z,3.77
2018-03-26T23:48:47.443Z,4.17
2018-03-26T23:50:51.098Z,3.90
2018-03-26T23:52:54.730Z,3.60
2018-03-26T23:54:58.491Z,4.00
2018-03-26T23:57:01.990Z,3.80
2018-03-26T23:59:05.473Z,3.50
